Sharon, New Hampshire
Current Conditions -  °F | °C
As of 5:52 PM on Thursday 23 Oct 2014 (Local Time) from KAFN Reporting Station
Light Rain Light Rain  
Wind Chill: 43°   Ceiling: 800
Heat Index: 48°   Visibility: 10mi
Dew Point: 47°   Wind: 10mph
Humidity: 96%   Direction: 360°N
Pressure: 29.72"   Gusts: 17mph
Location:  42.8756°N, 71.9378°W
Report Text: KAFN 232152Z AUTO 36009G15KT 320V030 10SM -RA OVC008 09/08 A2972 RMK AO2 RAE16B44 CIG 007V012 SLP074 P0000 T00890083
Loading
Personal Weather Stations






























Interactive Weather Map
Tropical Storm Tracking
New forecast layout! Learn more

10-Day Weather Forecast

Advertisements
Track Severe Weather on mobile